Meteosat more information blitzortung!


Radar lluvias  rain snow radar


Website of another weatherstation

Website of another weatherstation



No requiere especial atención con respecto al clima.    No hay Alarmas

Pagina Historial Weather Underground texto

Diario Resumen Diciembre 15, 2018 Unidades:  Métrico    impérial   Tanto
« Anterior Dia
Siguiente Dia »
Diario Semana Mensual Anual Personalizada
  Actual: Alto: Baja: Media:
Temperatura: -17.8 °C -17.8 °C -17.8 °C -16.7 °C
Punto de rocío: -18.8 °C -17.8 °C -18.8 °C -17.7 °C
Humedad: 87 % Humidity % 86 % 84 %
Velocidad del Viento: 0 km/h 0 km/h 0 km/h 6.6 km/h
Ráfagas de viento: 0 km/h 0 km/h - -
Viento:Calm - - SW
Pression baro: 34398.4 hPa 0 hPa 34398.4 hPa -
Précipitaciones: 0 mm      
Historical Graphs
 
 
Datos de tabla para Diciembre 15, 2018
Tiempo Temperatura Punto de rocío Pression baro Viento Velocidad del Viento Ráfagas de viento Humedad Las precipitaciones Rate ( Hora )
-17.8 °C -17.8 °C 0 hPa Calm     Humidity % 0 mm
00:02 -16.1 °C -17.3 °C 34398.4 hPa WSW 11.9 km/h 8.2 km/h 86 % 0 mm
00:07 -16.1 °C -17.2 °C 34398.4 hPa WSW 12.9 km/h 9.8 km/h 87 % 0 mm
00:12 -16.1 °C -17.2 °C 34398.4 hPa WSW 15 km/h 10.3 km/h 87 % 0 mm
00:17 -16.1 °C -17.2 °C 34398.4 hPa WSW 11.9 km/h 8.9 km/h 87 % 0 mm
00:22 -16.1 °C -17.2 °C 34398.4 hPa WSW 15 km/h 10.9 km/h 87 % 0 mm
00:27 -16.1 °C -17.2 °C 34398.4 hPa WSW 15 km/h 7.2 km/h 87 % 0 mm
00:32 -16.1 °C -17.2 °C 34398.4 hPa WSW 9 km/h 5.1 km/h 87 % 0 mm
00:37 -16.7 °C -17.7 °C 34398.4 hPa SW 11.9 km/h 6.9 km/h 87 % 0 mm
00:42 -16.7 °C -17.7 °C 34398.4 hPa SW 6 km/h 4.3 km/h 87 % 0 mm
00:47 -16.7 °C -17.7 °C 34398.4 hPa SW 6 km/h 4.2 km/h 87 % 0 mm
00:52 -16.7 °C -17.7 °C 34398.4 hPa SW 6.4 km/h 4.2 km/h 87 % 0 mm
00:57 -16.7 °C -17.7 °C 34398.4 hPa WSW 6 km/h 4.3 km/h 87 % 0 mm
01:02 -16.7 °C -17.7 °C 34398.4 hPa WSW 9 km/h 6 km/h 87 % 0 mm
01:07 -16.7 °C -17.7 °C 34398.4 hPa SW 11.9 km/h 7.6 km/h 87 % 0 mm
01:12 -16.7 °C -17.7 °C 34398.4 hPa WSW 9 km/h 7.6 km/h 87 % 0 mm
01:17 -16.7 °C -17.7 °C 34398.4 hPa SW 9 km/h 6.4 km/h 88 % 0 mm
01:22 -16.7 °C -17.7 °C 34398.4 hPa WSW 9 km/h 6.3 km/h 88 % 0 mm
01:27 -16.7 °C -17.7 °C 34398.4 hPa SW 6.4 km/h 5.5 km/h 88 % 0 mm
01:32 -16.7 °C -17.7 °C 34398.4 hPa SW 9 km/h 5.1 km/h 88 % 0 mm
01:37 -16.7 °C -17.7 °C 34398.4 hPa NNW 9 km/h 3.4 km/h 88 % 0 mm
01:42 -16.7 °C -17.7 °C 34398.4 hPa WSW 11.9 km/h 6.3 km/h 87 % 0 mm
01:47 -16.7 °C -17.7 °C 34398.4 hPa WSW 6 km/h 2.6 km/h 87 % 0 mm
01:52 -16.7 °C -17.8 °C 34398.4 hPa Calm     86 % 0 mm
01:57 -16.7 °C -17.7 °C 34398.4 hPa SW 3.1 km/h   87 % 0 mm
02:02 -16.7 °C -17.8 °C 34398.4 hPa Calm     86 % 0 mm
02:07 -16.7 °C -17.8 °C 34398.4 hPa Calm     86 % 0 mm
02:12 -17.2 °C -18.4 °C 34398.4 hPa Calm     86 % 0 mm
02:17 -17.2 °C -18.3 °C 34398.4 hPa NE 3.1 km/h 1.3 km/h 87 % 0 mm
02:22 -17.2 °C -18.3 °C 34398.4 hPa Calm     87 % 0 mm
02:27 -17.2 °C -18.3 °C 34398.4 hPa Calm     87 % 0 mm
02:32 -17.2 °C -18.3 °C 34398.4 hPa Calm     87 % 0 mm
02:37 -17.2 °C -18.3 °C 34432.2 hPa Calm     87 % 0 mm
02:41 -17.8 °C -18.8 °C 34398.4 hPa Calm     87 % 0 mm
Alcoletge
Elogios de Weather Underground - 1.75 mb

Guión original por  Jim McMurry - jmcmurry@mwt.net Adaptado para la plantilla por  Wim van der Kuil - Leuven-Template.eu

Usted encontrará nuestra información del tiempo también en:

Weather Underground

Iberian Peninsula Weather Network